Time,TemperatureF,DewpointF,PressureIn,WindDirection,WindDirectionDegrees,WindSpeedMPH,WindSpeedGustMPH,Humidity,HourlyPrecipIn,Conditions,Clouds,dailyrainin,SoftwareType,DateUTC
2013-10-10 00:11:00,55.6,54.0,30.18,SSW,199,0.0,0.0,95,0.00,,,0.00,weatherlink.com 1.10,2013-10-10 04:11:00,
2013-10-10 00:26:00,55.0,54.0,30.18,SSW,200,0.0,0.0,95,0.00,,,0.00,weatherlink.com 1.10,2013-10-10 04:26:00,
2013-10-10 00:41:00,55.0,54.0,30.18,SSW,200,0.0,0.0,95,0.00,,,0.00,weatherlink.com 1.10,2013-10-10 04:41:00,
2013-10-10 00:56:00,54.5,53.0,30.17,SSW,200,0.0,0.0,95,0.00,,,0.00,weatherlink.com 1.10,2013-10-10 04:56:00,
2013-10-10 01:11:00,54.3,53.0,30.17,SSW,200,0.0,0.0,96,0.00,,,0.00,weatherlink.com 1.10,2013-10-10 05:11:00,
2013-10-10 01:26:00,54.1,53.0,30.17,SSW,200,0.0,0.0,96,0.00,,,0.00,weatherlink.com 1.10,2013-10-10 05:26:00,
2013-10-10 02:29:00,52.7,52.0,30.18,SSW,200,0.0,0.0,97,0.00,,,0.00,weatherlink.com 1.10,2013-10-10 06:29:00,
2013-10-10 02:41:00,52.3,52.0,30.18,SSW,200,0.0,0.0,97,0.00,,,0.00,weatherlink.com 1.10,2013-10-10 06:41:00,
2013-10-10 02:56:00,51.8,51.0,30.18,SSW,200,0.0,0.0,97,0.00,,,0.00,weatherlink.com 1.10,2013-10-10 06:56:00,
2013-10-10 03:11:00,51.5,51.0,30.18,SSW,200,0.0,0.0,97,0.00,,,0.00,weatherlink.com 1.10,2013-10-10 07:11:00,
2013-10-10 03:26:00,51.6,51.0,30.18,SSW,200,0.0,0.0,97,0.00,,,0.00,weatherlink.com 1.10,2013-10-10 07:26:00,
2013-10-10 03:41:00,51.6,51.0,30.18,SSW,200,0.0,0.0,97,0.00,,,0.00,weatherlink.com 1.10,2013-10-10 07:41:00,
2013-10-10 03:56:00,51.2,50.0,30.18,SSW,200,0.0,0.0,97,0.00,,,0.00,weatherlink.com 1.10,2013-10-10 07:56:00,
2013-10-10 04:11:00,50.9,50.0,30.17,SSW,200,0.0,0.0,97,0.00,,,0.00,weatherlink.com 1.10,2013-10-10 08:11:00,
2013-10-10 04:27:00,50.1,49.0,30.17,SSW,200,0.0,0.0,97,0.00,,,0.00,weatherlink.com 1.10,2013-10-10 08:27:00,
2013-10-10 04:42:00,50.4,50.0,30.18,SSW,200,0.0,0.0,97,0.00,,,0.00,weatherlink.com 1.10,2013-10-10 08:42:00,
2013-10-10 04:57:00,50.3,50.0,30.18,SSW,200,0.0,0.0,97,0.00,,,0.00,weatherlink.com 1.10,2013-10-10 08:57:00,
2013-10-10 05:12:00,50.5,50.0,30.18,SSW,200,0.0,0.0,98,0.00,,,0.00,weatherlink.com 1.10,2013-10-10 09:12:00,
2013-10-10 05:27:00,50.3,50.0,30.18,SSW,200,0.0,0.0,98,0.00,,,0.00,weatherlink.com 1.10,2013-10-10 09:27:00,
2013-10-10 05:42:00,50.8,51.0,30.19,SSW,200,0.0,0.0,100,0.00,,,0.00,weatherlink.com 1.10,2013-10-10 09:42:00,
2013-10-10 05:57:00,-999.0,-99.9,30.19,North,-999,-999.0,-999.0,-999,0.00,,,0.00,weatherlink.com 1.10,2013-10-10 09:57:00,
2013-10-10 06:12:00,-999.0,-99.9,30.19,North,-999,-999.0,-999.0,-999,0.00,,,0.00,weatherlink.com 1.10,2013-10-10 10:12:00,
2013-10-10 06:27:00,-999.0,-99.9,30.19,North,-999,-999.0,-999.0,-999,0.00,,,0.00,weatherlink.com 1.10,2013-10-10 10:27:00,
2013-10-10 06:42:00,-999.0,-99.9,30.19,North,-999,-999.0,-999.0,-999,0.00,,,0.00,weatherlink.com 1.10,2013-10-10 10:42:00,
2013-10-10 06:57:00,-999.0,-99.9,30.19,North,-999,-999.0,-999.0,-999,0.00,,,0.00,weatherlink.com 1.10,2013-10-10 10:57:00,
2013-10-10 07:12:00,-999.0,-99.9,30.20,North,-999,-999.0,-999.0,-999,0.00,,,0.00,weatherlink.com 1.10,2013-10-10 11:12:00,
2013-10-10 07:27:00,-999.0,-99.9,30.20,North,-999,-999.0,-999.0,-999,0.00,,,0.00,weatherlink.com 1.10,2013-10-10 11:27:00,
2013-10-10 07:42:00,-999.0,-99.9,30.20,North,-999,-999.0,-999.0,-999,0.00,,,0.00,weatherlink.com 1.10,2013-10-10 11:42:00,
2013-10-10 07:57:00,-999.0,-99.9,30.20,North,-999,-999.0,-999.0,-999,0.00,,,0.00,weatherlink.com 1.10,2013-10-10 11:57:00,
2013-10-10 08:27:00,-999.0,-99.9,30.20,North,-999,-999.0,-999.0,-999,0.00,,,0.00,weatherlink.com 1.10,2013-10-10 12:27:00,
2013-10-10 08:42:00,50.1,50.0,30.20,SSW,200,0.0,0.0,98,0.00,,,0.00,weatherlink.com 1.10,2013-10-10 12:42:00,
2013-10-10 08:57:00,51.3,51.0,30.21,SW,219,0.0,1.0,98,0.00,,,0.00,weatherlink.com 1.10,2013-10-10 12:57:00,
2013-10-10 09:12:00,53.2,53.0,30.21,SW,224,0.0,0.0,98,0.00,,,0.00,weatherlink.com 1.10,2013-10-10 13:12:00,
2013-10-10 09:28:00,54.1,54.0,30.21,SW,224,0.0,1.0,98,0.00,,,0.00,weatherlink.com 1.10,2013-10-10 13:28:00,
2013-10-10 09:43:00,55.2,54.0,30.21,SW,224,0.0,0.0,95,0.00,,,0.00,weatherlink.com 1.10,2013-10-10 13:43:00,
2013-10-10 09:58:00,56.5,54.0,30.21,NNE,20,0.0,0.0,92,0.00,,,0.00,weatherlink.com 1.10,2013-10-10 13:58:00,
2013-10-10 10:13:00,58.4,55.0,30.22,NE,51,0.0,1.0,88,0.00,,,0.00,weatherlink.com 1.10,2013-10-10 14:13:00,
2013-10-10 10:28:00,60.2,55.0,30.22,SSW,207,1.0,2.0,82,0.00,,,0.00,weatherlink.com 1.10,2013-10-10 14:28:00,
2013-10-10 10:43:00,62.7,55.0,30.22,SE,145,0.0,1.0,77,0.00,,,0.00,weatherlink.com 1.10,2013-10-10 14:43:00,
2013-10-10 10:58:00,63.5,55.0,30.22,ENE,59,0.0,1.0,75,0.00,,,0.00,weatherlink.com 1.10,2013-10-10 14:58:00,
2013-10-10 11:13:00,64.4,56.0,30.22,ENE,61,0.0,2.0,73,0.00,,,0.00,weatherlink.com 1.10,2013-10-10 15:13:00,
2013-10-10 11:28:00,66.4,56.0,30.22,South,172,2.0,3.0,69,0.00,,,0.00,weatherlink.com 1.10,2013-10-10 15:28:00,
2013-10-10 11:43:00,68.4,56.0,30.22,South,180,1.0,2.0,65,0.00,,,0.00,weatherlink.com 1.10,2013-10-10 15:43:00,
2013-10-10 11:58:00,68.5,55.0,30.22,East,83,3.0,4.0,62,0.00,,,0.00,weatherlink.com 1.10,2013-10-10 15:58:00,
2013-10-10 12:13:00,69.0,54.0,30.21,WSW,243,0.0,3.0,60,0.00,,,0.00,weatherlink.com 1.10,2013-10-10 16:13:00,
2013-10-10 12:28:00,70.8,53.0,30.21,ENE,68,2.0,5.0,54,0.00,,,0.00,weatherlink.com 1.10,2013-10-10 16:28:00,
2013-10-10 12:43:00,70.9,52.0,30.21,South,170,2.0,3.0,52,0.00,,,0.00,weatherlink.com 1.10,2013-10-10 16:43:00,
2013-10-10 12:58:00,72.9,52.0,30.20,NNE,14,1.0,4.0,48,0.00,,,0.00,weatherlink.com 1.10,2013-10-10 16:58:00,
2013-10-10 13:13:00,72.3,51.0,30.20,NE,56,1.0,5.0,48,0.00,,,0.00,weatherlink.com 1.10,2013-10-10 17:13:00,
2013-10-10 13:28:00,72.7,52.0,30.19,SSE,151,0.0,5.0,48,0.00,,,0.00,weatherlink.com 1.10,2013-10-10 17:28:00,
2013-10-10 13:43:00,74.1,52.0,30.18,SE,126,1.0,4.0,47,0.00,,,0.00,weatherlink.com 1.10,2013-10-10 17:43:00,
2013-10-10 13:58:00,74.3,52.0,30.17,South,170,1.0,4.0,45,0.00,,,0.00,weatherlink.com 1.10,2013-10-10 17:58:00,
2013-10-10 14:36:00,73.5,52.0,30.16,ENE,70,2.0,6.0,47,0.00,,,0.00,weatherlink.com 1.10,2013-10-10 18:36:00,
2013-10-10 14:43:00,73.5,51.0,30.16,East,86,0.0,5.0,45,0.00,,,0.00,weatherlink.com 1.10,2013-10-10 18:43:00,
2013-10-10 14:58:00,73.9,52.0,30.15,East,92,3.0,5.0,46,0.00,,,0.00,weatherlink.com 1.10,2013-10-10 18:58:00,
2013-10-10 15:13:00,74.7,52.0,30.15,NNE,32,3.0,5.0,45,0.00,,,0.00,weatherlink.com 1.10,2013-10-10 19:13:00,
2013-10-10 15:28:00,75.8,53.0,30.15,SE,141,0.0,5.0,46,0.00,,,0.00,weatherlink.com 1.10,2013-10-10 19:28:00,
2013-10-10 15:44:00,74.8,51.0,30.15,East,96,1.0,6.0,44,0.00,,,0.00,weatherlink.com 1.10,2013-10-10 19:44:00,
2013-10-10 15:59:00,76.1,53.0,30.14,NE,41,2.0,4.0,44,0.00,,,0.00,weatherlink.com 1.10,2013-10-10 19:59:00,
2013-10-10 16:14:00,75.5,52.0,30.14,East,93,1.0,5.0,44,0.00,,,0.00,weatherlink.com 1.10,2013-10-10 20:14:00,
2013-10-10 16:29:00,75.4,52.0,30.13,East,98,3.0,5.0,44,0.00,,,0.00,weatherlink.com 1.10,2013-10-10 20:29:00,
2013-10-10 16:44:00,75.4,53.0,30.12,NNE,29,2.0,5.0,46,0.00,,,0.00,weatherlink.com 1.10,2013-10-10 20:44:00,
2013-10-10 16:59:00,75.5,52.0,30.12,NE,43,2.0,2.0,44,0.00,,,0.00,weatherlink.com 1.10,2013-10-10 20:59:00,
2013-10-10 17:14:00,75.4,53.0,30.12,ENE,66,3.0,4.0,45,0.00,,,0.00,weatherlink.com 1.10,2013-10-10 21:14:00,
2013-10-10 17:29:00,75.1,52.0,30.12,NE,51,1.0,7.0,44,0.00,,,0.00,weatherlink.com 1.10,2013-10-10 21:29:00,
2013-10-10 17:44:00,75.3,52.0,30.11,SSE,156,0.0,5.0,45,0.00,,,0.00,weatherlink.com 1.10,2013-10-10 21:44:00,
2013-10-10 17:59:00,74.8,53.0,30.11,East,82,1.0,4.0,46,0.00,,,0.00,weatherlink.com 1.10,2013-10-10 21:59:00,
2013-10-10 18:14:00,74.0,52.0,30.11,East,95,0.0,2.0,47,0.00,,,0.00,weatherlink.com 1.10,2013-10-10 22:14:00,
2013-10-10 18:29:00,71.5,56.0,30.10,East,94,0.0,1.0,58,0.00,,,0.00,weatherlink.com 1.10,2013-10-10 22:29:00,
2013-10-10 18:59:00,66.4,55.0,30.10,SW,232,0.0,1.0,68,0.00,,,0.00,weatherlink.com 1.10,2013-10-10 22:59:00,
2013-10-10 19:14:00,64.0,55.0,30.11,SW,233,0.0,0.0,72,0.00,,,0.00,weatherlink.com 1.10,2013-10-10 23:14:00,
2013-10-10 19:29:00,63.0,54.0,30.10,SW,232,0.0,0.0,73,0.00,,,0.00,weatherlink.com 1.10,2013-10-10 23:29:00,
2013-10-10 19:59:00,61.5,54.0,30.10,SW,232,0.0,0.0,75,0.00,,,0.00,weatherlink.com 1.10,2013-10-10 23:59:00,
2013-10-10 20:32:00,59.7,53.0,30.10,SW,232,0.0,0.0,79,0.00,,,0.00,weatherlink.com 1.10,2013-10-11 00:32:00,
2013-10-10 20:44:00,59.3,53.0,30.10,SW,232,0.0,0.0,80,0.00,,,0.00,weatherlink.com 1.10,2013-10-11 00:44:00,
2013-10-10 20:59:00,58.7,53.0,30.10,SW,232,0.0,0.0,80,0.00,,,0.00,weatherlink.com 1.10,2013-10-11 00:59:00,
2013-10-10 21:29:00,57.4,52.0,30.11,SW,232,0.0,0.0,83,0.00,,,0.00,weatherlink.com 1.10,2013-10-11 01:29:00,
2013-10-10 21:59:00,56.3,52.0,30.11,SW,232,0.0,0.0,86,0.00,,,0.00,weatherlink.com 1.10,2013-10-11 01:59:00,
2013-10-10 22:14:00,56.2,52.0,30.11,SW,232,0.0,0.0,86,0.00,,,0.00,weatherlink.com 1.10,2013-10-11 02:14:00,
2013-10-10 22:29:00,56.0,52.0,30.11,SW,232,0.0,0.0,87,0.00,,,0.00,weatherlink.com 1.10,2013-10-11 02:29:00,
2013-10-10 22:44:00,55.8,52.0,30.11,SW,232,0.0,0.0,88,0.00,,,0.00,weatherlink.com 1.10,2013-10-11 02:44:00,
2013-10-10 22:59:00,54.7,52.0,30.11,SW,231,0.0,0.0,89,0.00,,,0.00,weatherlink.com 1.10,2013-10-11 02:59:00,
2013-10-10 23:14:00,54.0,52.0,30.10,SW,232,0.0,0.0,91,0.00,,,0.00,weatherlink.com 1.10,2013-10-11 03:14:00,
2013-10-10 23:29:00,53.5,52.0,30.10,SW,232,0.0,0.0,93,0.00,,,0.00,weatherlink.com 1.10,2013-10-11 03:29:00,
2013-10-10 23:44:00,53.4,52.0,30.10,SW,232,0.0,0.0,93,0.00,,,0.00,weatherlink.com 1.10,2013-10-11 03:44:00,
2013-10-10 23:59:00,53.6,52.0,30.10,SW,232,0.0,0.0,94,0.00,,,0.00,weatherlink.com 1.10,2013-10-11 03:59:00,